Time;durP1;ratioP1;P1;durP2;ratioP2;P2;SDS_P1;SDS_P2;PMS_P1;PMS_P2;Temp;Humidity;BMP_temperature;BMP_pressure;BME280_temperature;BME280_humidity;BME280_pressure;Samples;Min_cycle;Max_cycle;Signal;HPM_P1;HPM_P2
2021/06/05 00:07:10;;;;;;;3.23;1.80;;;16.10;99.90;;;;;;20921653;28;20045;-77
2021/06/05 00:17:11;;;;;;;3.25;1.55;;;16.30;99.90;;;;;;20921047;28;20175;-76
2021/06/05 00:27:12;;;;;;;6.57;2.03;;;16.00;99.90;;;;;;20911456;28;20049;-78
2021/06/05 00:37:13;;;;;;;3.53;1.73;;;15.90;99.90;;;;;;20920145;28;20044;-77
2021/06/05 00:47:14;;;;;;;6.07;1.63;;;15.60;99.90;;;;;;20917884;28;20068;-77
2021/06/05 00:57:16;;;;;;;5.93;1.97;;;15.60;99.90;;;;;;20899418;28;20415;-76
2021/06/05 01:07:22;;;;;;;5.50;2.00;;;15.60;99.90;;;;;;20898843;28;20087;-76
2021/06/05 01:17:37;;;;;;;5.65;2.03;;;15.50;99.90;;;;;;20897951;28;20415;-76
2021/06/05 01:28:02;;;;;;;5.70;2.10;;;15.50;99.90;;;;;;20915440;28;20049;-76
2021/06/05 01:38:05;;;;;;;3.90;2.67;;;15.50;99.90;;;;;;20879904;28;20127;-76
2021/06/05 01:48:08;;;;;;;6.72;2.75;;;15.50;99.90;;;;;;20895174;28;20048;-76
2021/06/05 01:58:16;;;;;;;5.30;2.83;;;15.40;99.90;;;;;;20894775;28;20052;-77
2021/06/05 02:08:38;;;;;;;8.35;2.70;;;15.40;99.90;;;;;;20911818;28;20083;-76
2021/06/05 02:18:45;;;;;;;13.80;2.50;;;15.50;99.90;;;;;;20893242;28;20171;-76
2021/06/05 02:28:54;;;;;;;5.95;2.33;;;15.50;99.90;;;;;;20876255;28;20167;-75
2021/06/05 02:38:57;;;;;;;11.25;3.10;;;15.50;99.90;;;;;;20891718;28;20045;-76
2021/06/05 02:49:08;;;;;;;8.52;4.40;;;15.40;99.90;;;;;;20891083;28;20057;-76
2021/06/05 02:59:13;;;;;;;8.10;3.85;;;15.40;99.90;;;;;;20908608;28;20047;-77
2021/06/05 03:09:19;;;;;;;14.13;4.25;;;15.40;99.90;;;;;;20890243;28;20040;-77
2021/06/05 03:19:21;;;;;;;10.02;6.28;;;15.40;99.90;;;;;;20889894;28;20434;-76
2021/06/05 03:29:25;;;;;;;10.02;6.25;;;15.40;99.90;;;;;;20892169;28;20041;-77
2021/06/05 03:39:32;;;;;;;12.90;6.07;;;15.50;99.90;;;;;;20920401;28;20045;-77
2021/06/05 03:49:36;;;;;;;7.97;3.97;;;15.20;99.90;;;;;;20904371;28;20303;-76
2021/06/05 03:59:38;;;;;;;6.97;3.65;;;15.20;99.90;;;;;;20921910;28;20542;-76
2021/06/05 04:09:40;;;;;;;4.60;3.27;;;15.30;99.90;;;;;;20921427;28;20033;-77
2021/06/05 04:19:41;;;;;;;9.70;3.17;;;15.40;99.90;;;;;;20920456;28;20129;-77
2021/06/05 04:29:42;;;;;;;8.77;3.93;;;15.40;99.90;;;;;;20919885;28;20065;-77
2021/06/05 04:39:43;;;;;;;11.97;4.33;;;15.50;99.90;;;;;;20901297;28;20037;-78
2021/06/05 04:49:45;;;;;;;8.20;4.93;;;15.50;99.90;;;;;;20917947;28;20048;-75
2021/06/05 04:59:46;;;;;;;11.77;5.63;;;15.60;99.90;;;;;;20899716;28;20041;-76
2021/06/05 05:09:47;;;;;;;8.50;3.77;;;15.70;99.90;;;;;;20899150;28;20037;-76
2021/06/05 05:19:47;;;;;;;4.00;2.23;;;15.80;99.90;;;;;;20939991;28;20037;-76
2021/06/05 05:29:48;;;;;;;5.17;3.40;;;16.10;99.90;;;;;;20936756;28;20092;-77
2021/06/05 05:39:49;;;;;;;6.33;3.37;;;16.30;99.90;;;;;;20920225;28;20068;-77
2021/06/05 05:49:50;;;;;;;6.00;3.50;;;16.20;99.90;;;;;;20906137;28;20087;-76
2021/06/05 05:59:51;;;;;;;5.53;3.60;;;16.30;99.90;;;;;;20899098;28;20492;-77
2021/06/05 06:09:53;;;;;;;14.47;3.60;;;16.30;99.90;;;;;;20901288;28;20568;-77
2021/06/05 06:19:54;;;;;;;6.53;4.10;;;16.70;99.90;;;;;;20911625;28;20037;-76
2021/06/05 06:29:55;;;;;;;10.60;4.37;;;16.70;99.90;;;;;;20912054;28;20116;-76
2021/06/05 06:39:55;;;;;;;6.63;4.30;;;17.20;99.90;;;;;;20910218;28;20037;-77
2021/06/05 06:49:56;;;;;;;9.03;4.80;;;17.40;99.90;;;;;;20909784;28;20041;-77
2021/06/05 06:59:57;;;;;;;9.13;5.17;;;17.10;99.90;;;;;;20910118;28;20040;-76
2021/06/05 07:09:58;;;;;;;11.40;4.97;;;16.90;99.90;;;;;;20943082;28;20068;-77
2021/06/05 07:19:59;;;;;;;10.30;6.77;;;16.90;99.90;;;;;;20897913;28;20075;-79
2021/06/05 07:30:00;;;;;;;13.30;6.77;;;17.00;99.90;;;;;;20940608;28;20041;-77
2021/06/05 07:40:06;;;;;;;12.43;7.07;;;16.70;99.90;;;;;;20974240;28;20067;-79
2021/06/05 07:50:10;;;;;;;17.85;5.95;;;16.40;99.90;;;;;;20932492;28;20551;-77
2021/06/05 08:00:15;;;;;;;8.23;3.60;;;16.60;99.90;;;;;;20911668;28;20041;-78
2021/06/05 08:10:18;;;;;;;6.30;2.60;;;16.60;99.90;;;;;;20910085;28;20068;-78
2021/06/05 08:20:23;;;;;;;5.75;2.58;;;16.60;99.90;;;;;;20843124;28;20055;-78
2021/06/05 08:30:29;;;;;;;5.97;3.40;;;16.50;99.90;;;;;;20827772;28;20120;-77
2021/06/05 08:40:57;;;;;;;2.47;1.77;;;16.70;99.90;;;;;;20953160;28;20063;-78
2021/06/05 08:51:15;;;;;;;1.55;1.17;;;16.70;99.90;;;;;;20949444;28;20067;-76
2021/06/05 09:01:26;;;;;;;2.67;0.80;;;16.80;99.90;;;;;;20900881;28;20127;-76
2021/06/05 09:11:27;;;;;;;3.23;0.93;;;16.80;99.90;;;;;;20876792;28;20041;-76
2021/06/05 09:21:37;;;;;;;6.37;1.03;;;16.90;99.90;;;;;;20877176;28;20056;-76
2021/06/05 09:32:07;;;;;;;1.55;0.40;;;17.20;99.90;;;;;;20888799;28;20045;-77
2021/06/05 09:42:11;;;;;;;0.68;0.30;;;17.50;99.90;;;;;;20894561;28;20519;-76
2021/06/05 09:52:21;;;;;;;0.57;0.30;;;17.70;99.90;;;;;;20892152;28;20043;-76
2021/06/05 10:02:23;;;;;;;0.30;0.30;;;17.60;99.90;;;;;;20891147;28;20522;-76
2021/06/05 10:12:27;;;;;;;0.85;0.43;;;17.80;99.90;;;;;;20890642;28;20133;-76
2021/06/05 10:22:29;;;;;;;4.18;0.55;;;17.70;99.90;;;;;;20872505;28;20191;-76
2021/06/05 10:32:36;;;;;;;1.02;0.57;;;17.90;99.90;;;;;;20890529;28;20363;-75
2021/06/05 10:42:41;;;;;;;3.65;0.57;;;17.80;99.90;;;;;;20882128;28;20048;-76
2021/06/05 10:52:53;;;;;;;51.72;3.30;;;17.60;99.90;;;;;;20857854;28;20037;-76
2021/06/05 11:02:57;;;;;;;3.22;0.60;;;18.00;99.90;;;;;;20807081;28;20544;-76
2021/06/05 11:12:58;;;;;;;2.92;0.40;;;18.70;99.90;;;;;;20828336;28;20659;-75
2021/06/05 11:23:08;;;;;;;3.13;0.80;;;18.40;99.90;;;;;;20868767;28;20045;-76
2021/06/05 11:33:10;;;;;;;4.10;1.73;;;18.20;99.90;;;;;;20884980;28;20420;-76
2021/06/05 11:43:28;;;;;;;0.47;0.30;;;18.50;99.90;;;;;;20883241;28;20041;-76
2021/06/05 11:53:35;;;;;;;2.33;0.70;;;18.40;99.90;;;;;;20875167;28;20060;-75
2021/06/05 12:03:50;;;;;;;1.58;0.60;;;18.40;99.90;;;;;;20897190;28;20137;-75
2021/06/05 12:14:04;;;;;;;2.13;0.40;;;18.30;99.90;;;;;;20899189;28;20605;-76
2021/06/05 12:24:23;;;;;;;0.82;0.38;;;18.10;99.90;;;;;;20882451;28;20051;-76
2021/06/05 12:34:30;;;;;;;1.80;0.32;;;18.20;99.90;;;;;;20871365;28;20128;-75
2021/06/05 12:44:33;;;;;;;0.98;0.40;;;17.80;99.90;;;;;;20897164;28;20049;-75
2021/06/05 12:54:45;;;;;;;1.27;0.45;;;17.30;99.90;;;;;;20866198;28;20041;-75
2021/06/05 13:04:47;;;;;;;2.40;0.63;;;17.00;99.90;;;;;;20915314;28;20514;-75
2021/06/05 13:15:06;;;;;;;;;;;16.60;99.90;;;;;;20916622;28;20120;-76
2021/06/05 13:25:27;;;;;;;1.65;1.02;;;16.60;99.90;;;;;;20914483;28;19912;-75
2021/06/05 13:35:38;;;;;;;1.20;0.90;;;16.50;99.90;;;;;;20895666;28;20095;-76
2021/06/05 13:45:39;;;;;;;1.33;0.60;;;16.40;99.90;;;;;;20910353;28;20079;-76
2021/06/05 13:55:47;;;;;;;2.60;0.60;;;16.50;99.90;;;;;;20911471;28;20388;-76
2021/06/05 14:05:49;;;;;;;1.27;0.70;;;16.80;99.90;;;;;;20894286;28;20040;-75
2021/06/05 14:15:56;;;;;;;0.35;0.35;;;16.90;99.90;;;;;;20911581;28;20478;-76
2021/06/05 14:25:58;;;;;;;1.00;0.85;;;16.90;99.90;;;;;;20907977;28;20123;-75
2021/06/05 14:36:02;;;;;;;1.48;0.60;;;17.00;99.90;;;;;;20907116;28;20044;-76
2021/06/05 14:46:03;;;;;;;3.03;0.43;;;17.00;99.90;;;;;;20887751;28;20056;-76
2021/06/05 14:56:08;;;;;;;1.03;0.53;;;17.00;99.90;;;;;;20905203;28;20040;-76
2021/06/05 15:06:09;;;;;;;1.35;0.70;;;17.10;99.90;;;;;;20901092;28;20104;-77
2021/06/05 15:16:10;;;;;;;0.70;0.70;;;17.40;99.90;;;;;;20889096;28;20099;-76
2021/06/05 15:26:11;;;;;;;0.80;0.60;;;17.30;99.90;;;;;;20888824;28;20044;-76
2021/06/05 15:36:12;;;;;;;1.23;0.63;;;17.60;99.90;;;;;;20921374;28;20121;-76
2021/06/05 15:46:15;;;;;;;1.70;0.60;;;17.60;99.90;;;;;;20919827;28;20078;-75
2021/06/05 15:56:18;;;;;;;0.63;0.60;;;17.60;99.90;;;;;;20920230;28;20045;-78
2021/06/05 16:06:19;;;;;;;2.13;1.40;;;17.80;99.90;;;;;;20920267;28;20043;-78
2021/06/05 16:16:21;;;;;;;2.40;1.60;;;18.10;99.90;;;;;;20902711;28;20037;-79
2021/06/05 16:26:25;;;;;;;1.52;0.90;;;18.10;99.90;;;;;;20917364;28;20407;-78
2021/06/05 16:36:26;;;;;;;1.25;0.93;;;18.10;99.90;;;;;;20918733;28;20044;-78
2021/06/05 16:46:27;;;;;;;2.13;0.83;;;18.00;99.90;;;;;;20879295;28;20048;-78
2021/06/05 16:56:30;;;;;;;1.10;0.97;;;18.10;99.90;;;;;;20916850;28;20867;-78
2021/06/05 17:06:32;;;;;;;4.53;1.10;;;17.90;99.90;;;;;;20888102;28;20040;-78
2021/06/05 17:16:33;;;;;;;1.90;0.95;;;17.50;99.90;;;;;;20886200;28;20574;-78
2021/06/05 17:26:35;;;;;;;1.07;0.43;;;17.40;99.90;;;;;;20887576;28;20148;-79
2021/06/05 17:36:36;;;;;;;0.90;0.70;;;15.90;99.90;;;;;;20891742;28;20053;-77
2021/06/05 17:46:37;;;;;;;6.73;2.03;;;15.60;99.90;;;;;;20877583;28;20613;-75
2021/06/05 17:56:37;;;;;;;1.57;0.80;;;15.60;99.90;;;;;;20887407;28;20078;-76
2021/06/05 18:06:40;;;;;;;5.23;0.90;;;15.70;99.90;;;;;;20886052;28;20055;-75
2021/06/05 18:16:44;;;;;;;1.25;0.90;;;15.60;99.90;;;;;;20860057;28;20037;-76
2021/06/05 18:26:46;;;;;;;2.08;0.85;;;15.80;99.90;;;;;;20873816;28;20127;-76
2021/06/05 18:36:47;;;;;;;0.90;0.63;;;15.60;99.90;;;;;;20877044;28;20846;-76
2021/06/05 18:46:49;;;;;;;3.43;0.97;;;15.60;99.90;;;;;;20882005;28;20040;-76
2021/06/05 18:56:50;;;;;;;;;;;15.60;99.90;;;;;;20886928;28;20083;-75
2021/06/05 19:06:56;;;;;;;2.17;0.75;;;15.70;99.90;;;;;;20881877;28;19913;-75
2021/06/05 19:16:57;;;;;;;16.38;1.15;;;15.60;99.90;;;;;;20880821;28;20041;-76
2021/06/05 19:26:58;;;;;;;7.50;1.20;;;15.40;99.90;;;;;;20886420;28;20044;-75
2021/06/05 19:36:58;;;;;;;1.03;0.90;;;15.20;99.90;;;;;;20877528;28;20045;-75
2021/06/05 19:47:00;;;;;;;1.77;1.10;;;15.00;99.90;;;;;;20880395;28;20103;-76
2021/06/05 19:57:02;;;;;;;3.92;1.30;;;14.90;99.90;;;;;;20847513;28;20068;-76
2021/06/05 20:07:03;;;;;;;4.75;1.80;;;15.00;99.90;;;;;;20865854;28;20047;-76
2021/06/05 20:17:06;;;;;;;2.00;1.30;;;15.00;99.90;;;;;;20888928;28;20082;-75
2021/06/05 20:27:09;;;;;;;1.48;1.10;;;15.00;99.90;;;;;;20882670;28;20503;-75
2021/06/05 20:37:10;;;;;;;5.45;1.17;;;14.90;99.90;;;;;;20896188;28;20482;-77
2021/06/05 20:47:13;;;;;;;2.27;1.40;;;14.90;99.90;;;;;;20878941;28;20040;-76
2021/06/05 20:57:18;;;;;;;3.38;1.10;;;14.70;99.90;;;;;;20878257;28;20045;-76
2021/06/05 21:07:19;;;;;;;2.00;1.48;;;14.80;99.90;;;;;;20858787;28;20057;-76
2021/06/05 21:17:20;;;;;;;2.20;1.70;;;14.90;99.90;;;;;;20876723;28;20186;-76
2021/06/05 21:27:21;;;;;;;2.83;1.80;;;14.90;99.90;;;;;;20878587;28;20450;-77
2021/06/05 21:37:23;;;;;;;3.33;1.93;;;15.00;99.90;;;;;;20878101;28;20056;-77
2021/06/05 21:47:24;;;;;;;2.63;1.70;;;14.90;99.90;;;;;;20895379;28;20044;-76
2021/06/05 21:57:25;;;;;;;4.60;2.00;;;14.90;99.90;;;;;;20884882;28;20143;-76
2021/06/05 22:07:26;;;;;;;4.97;2.23;;;15.00;99.90;;;;;;20887157;28;20122;-76
2021/06/05 22:17:27;;;;;;;8.43;2.57;;;14.90;99.90;;;;;;20890174;28;20041;-76
2021/06/05 22:27:35;;;;;;;6.10;2.60;;;14.90;99.90;;;;;;20899221;28;20946;-76
2021/06/05 22:37:36;;;;;;;2.80;2.30;;;14.90;99.90;;;;;;20860578;28;20507;-77
2021/06/05 22:47:36;;;;;;;7.50;1.97;;;14.90;99.90;;;;;;20866370;28;20033;-76
2021/06/05 22:57:37;;;;;;;4.80;2.40;;;15.00;99.90;;;;;;20861390;28;20049;-76
2021/06/05 23:07:38;;;;;;;3.10;2.27;;;14.90;99.90;;;;;;20878722;28;20620;-77
2021/06/05 23:17:39;;;;;;;6.37;2.20;;;14.90;99.90;;;;;;20922168;28;20108;-78
2021/06/05 23:27:40;;;;;;;4.60;1.90;;;14.80;99.90;;;;;;20913308;28;20072;-77
2021/06/05 23:37:41;;;;;;;8.57;2.00;;;14.80;99.90;;;;;;20886795;28;20052;-75
2021/06/05 23:47:42;;;;;;;3.00;2.00;;;14.70;99.90;;;;;;20861632;28;20060;-78
2021/06/05 23:57:43;;;;;;;5.03;2.20;;;14.70;99.90;;;;;;20848228;28;20055;-77
